sensor_id;sensor_type;location;lat;lon;timestamp;P1;durP1;ratioP1;P2;durP2;ratioP2
45620;SDS011;31345;51.522;10.702;2024-03-02T00:02:25;21.58;;;12.60;;
45620;SDS011;31345;51.522;10.702;2024-03-02T00:04:58;20.90;;;13.50;;
45620;SDS011;31345;51.522;10.702;2024-03-02T00:07:31;20.25;;;13.82;;
45620;SDS011;31345;51.522;10.702;2024-03-02T00:10:04;24.08;;;14.90;;
45620;SDS011;31345;51.522;10.702;2024-03-02T00:12:41;25.45;;;15.07;;
45620;SDS011;31345;51.522;10.702;2024-03-02T00:15:18;27.33;;;15.47;;
45620;SDS011;31345;51.522;10.702;2024-03-02T00:18:14;20.77;;;13.07;;
45620;SDS011;31345;51.522;10.702;2024-03-02T00:20:52;19.60;;;11.97;;
45620;SDS011;31345;51.522;10.702;2024-03-02T00:23:21;20.17;;;13.52;;
45620;SDS011;31345;51.522;10.702;2024-03-02T00:25:49;25.40;;;14.43;;
45620;SDS011;31345;51.522;10.702;2024-03-02T00:28:25;25.47;;;15.03;;
45620;SDS011;31345;51.522;10.702;2024-03-02T00:30:58;25.23;;;14.23;;
45620;SDS011;31345;51.522;10.702;2024-03-02T00:33:33;23.07;;;14.27;;
45620;SDS011;31345;51.522;10.702;2024-03-02T00:36:07;21.57;;;14.17;;
45620;SDS011;31345;51.522;10.702;2024-03-02T00:38:43;23.67;;;14.53;;
45620;SDS011;31345;51.522;10.702;2024-03-02T00:41:17;23.47;;;13.87;;
45620;SDS011;31345;51.522;10.702;2024-03-02T00:43:57;23.97;;;14.20;;
45620;SDS011;31345;51.522;10.702;2024-03-02T00:49:03;22.03;;;13.73;;
45620;SDS011;31345;51.522;10.702;2024-03-02T00:51:37;23.63;;;14.10;;
45620;SDS011;31345;51.522;10.702;2024-03-02T00:54:07;24.63;;;14.50;;
45620;SDS011;31345;51.522;10.702;2024-03-02T00:56:41;25.97;;;14.43;;
45620;SDS011;31345;51.522;10.702;2024-03-02T00:59:14;23.40;;;14.73;;
45620;SDS011;31345;51.522;10.702;2024-03-02T01:01:41;23.73;;;14.37;;
45620;SDS011;31345;51.522;10.702;2024-03-02T01:04:11;22.50;;;14.17;;
45620;SDS011;31345;51.522;10.702;2024-03-02T01:06:40;24.20;;;15.53;;
45620;SDS011;31345;51.522;10.702;2024-03-02T01:09:13;26.07;;;15.60;;
45620;SDS011;31345;51.522;10.702;2024-03-02T01:11:45;23.63;;;14.10;;
45620;SDS011;31345;51.522;10.702;2024-03-02T01:14:18;20.90;;;14.37;;
45620;SDS011;31345;51.522;10.702;2024-03-02T01:16:46;25.60;;;14.60;;
45620;SDS011;31345;51.522;10.702;2024-03-02T01:19:15;23.90;;;14.23;;
45620;SDS011;31345;51.522;10.702;2024-03-02T01:21:48;21.97;;;13.73;;
45620;SDS011;31345;51.522;10.702;2024-03-02T01:24:21;22.63;;;13.90;;
45620;SDS011;31345;51.522;10.702;2024-03-02T01:26:49;27.57;;;15.80;;
45620;SDS011;31345;51.522;10.702;2024-03-02T01:29:21;25.57;;;14.63;;
45620;SDS011;31345;51.522;10.702;2024-03-02T01:31:54;24.17;;;15.33;;
45620;SDS011;31345;51.522;10.702;2024-03-02T01:34:23;22.40;;;15.40;;
45620;SDS011;31345;51.522;10.702;2024-03-02T01:36:50;25.23;;;15.03;;
45620;SDS011;31345;51.522;10.702;2024-03-02T01:39:18;23.67;;;14.27;;
45620;SDS011;31345;51.522;10.702;2024-03-02T01:41:46;24.50;;;14.73;;
45620;SDS011;31345;51.522;10.702;2024-03-02T01:44:18;21.47;;;14.07;;
45620;SDS011;31345;51.522;10.702;2024-03-02T01:46:51;22.47;;;13.43;;
45620;SDS011;31345;51.522;10.702;2024-03-02T01:49:25;22.20;;;13.63;;
45620;SDS011;31345;51.522;10.702;2024-03-02T01:51:58;22.10;;;14.80;;
45620;SDS011;31345;51.522;10.702;2024-03-02T01:54:25;22.40;;;14.07;;
45620;SDS011;31345;51.522;10.702;2024-03-02T01:56:53;24.10;;;14.70;;
45620;SDS011;31345;51.522;10.702;2024-03-02T01:59:21;22.10;;;14.73;;
45620;SDS011;31345;51.522;10.702;2024-03-02T02:01:48;23.37;;;15.13;;
45620;SDS011;31345;51.522;10.702;2024-03-02T02:04:21;25.87;;;16.50;;
45620;SDS011;31345;51.522;10.702;2024-03-02T02:06:59;29.97;;;16.87;;
45620;SDS011;31345;51.522;10.702;2024-03-02T02:09:32;27.20;;;16.30;;
45620;SDS011;31345;51.522;10.702;2024-03-02T02:12:05;29.10;;;16.73;;
45620;SDS011;31345;51.522;10.702;2024-03-02T02:14:33;27.03;;;16.40;;
45620;SDS011;31345;51.522;10.702;2024-03-02T02:17:01;33.80;;;16.80;;
45620;SDS011;31345;51.522;10.702;2024-03-02T02:19:29;27.37;;;16.23;;
45620;SDS011;31345;51.522;10.702;2024-03-02T02:21:57;27.10;;;16.37;;
45620;SDS011;31345;51.522;10.702;2024-03-02T02:24:30;29.00;;;16.57;;
45620;SDS011;31345;51.522;10.702;2024-03-02T02:27:03;25.33;;;15.67;;
45620;SDS011;31345;51.522;10.702;2024-03-02T02:29:35;24.20;;;15.43;;
45620;SDS011;31345;51.522;10.702;2024-03-02T02:32:08;23.57;;;14.77;;
45620;SDS011;31345;51.522;10.702;2024-03-02T02:34:41;25.30;;;15.47;;
45620;SDS011;31345;51.522;10.702;2024-03-02T02:37:10;24.20;;;15.80;;
45620;SDS011;31345;51.522;10.702;2024-03-02T02:39:38;24.20;;;15.67;;
45620;SDS011;31345;51.522;10.702;2024-03-02T02:42:10;26.40;;;16.33;;
45620;SDS011;31345;51.522;10.702;2024-03-02T02:44:43;25.17;;;15.67;;
45620;SDS011;31345;51.522;10.702;2024-03-02T02:47:15;24.40;;;14.53;;
45620;SDS011;31345;51.522;10.702;2024-03-02T02:49:48;24.43;;;15.00;;
45620;SDS011;31345;51.522;10.702;2024-03-02T02:52:22;24.53;;;15.90;;
45620;SDS011;31345;51.522;10.702;2024-03-02T02:54:55;29.33;;;16.23;;
45620;SDS011;31345;51.522;10.702;2024-03-02T02:57:27;29.97;;;16.53;;
45620;SDS011;31345;51.522;10.702;2024-03-02T03:00:02;29.08;;;16.73;;
45620;SDS011;31345;51.522;10.702;2024-03-02T03:02:41;26.70;;;15.87;;
45620;SDS011;31345;51.522;10.702;2024-03-02T03:05:14;22.00;;;14.80;;
45620;SDS011;31345;51.522;10.702;2024-03-02T03:07:49;24.80;;;15.30;;
45620;SDS011;31345;51.522;10.702;2024-03-02T03:10:21;29.60;;;17.63;;
45620;SDS011;31345;51.522;10.702;2024-03-02T03:12:56;28.73;;;16.73;;
45620;SDS011;31345;51.522;10.702;2024-03-02T03:15:29;28.53;;;16.83;;
45620;SDS011;31345;51.522;10.702;2024-03-02T03:18:02;28.97;;;17.03;;
45620;SDS011;31345;51.522;10.702;2024-03-02T03:20:35;28.87;;;15.80;;
45620;SDS011;31345;51.522;10.702;2024-03-02T03:23:09;29.77;;;18.23;;
45620;SDS011;31345;51.522;10.702;2024-03-02T03:25:46;34.93;;;18.47;;
45620;SDS011;31345;51.522;10.702;2024-03-02T03:28:13;34.87;;;17.70;;
45620;SDS011;31345;51.522;10.702;2024-03-02T03:30:46;31.07;;;17.50;;
45620;SDS011;31345;51.522;10.702;2024-03-02T03:33:13;29.38;;;17.40;;
45620;SDS011;31345;51.522;10.702;2024-03-02T03:35:41;31.07;;;18.40;;
45620;SDS011;31345;51.522;10.702;2024-03-02T03:38:15;27.43;;;16.97;;
45620;SDS011;31345;51.522;10.702;2024-03-02T03:40:48;30.73;;;17.37;;
45620;SDS011;31345;51.522;10.702;2024-03-02T03:43:15;28.50;;;17.37;;
45620;SDS011;31345;51.522;10.702;2024-03-02T03:45:48;30.93;;;17.83;;
45620;SDS011;31345;51.522;10.702;2024-03-02T03:48:16;29.40;;;17.93;;
45620;SDS011;31345;51.522;10.702;2024-03-02T03:50:43;30.42;;;17.98;;
45620;SDS011;31345;51.522;10.702;2024-03-02T03:53:17;29.20;;;18.05;;
45620;SDS011;31345;51.522;10.702;2024-03-02T03:55:45;32.17;;;18.60;;
45620;SDS011;31345;51.522;10.702;2024-03-02T03:58:15;29.70;;;16.83;;
45620;SDS011;31345;51.522;10.702;2024-03-02T04:00:49;26.13;;;16.47;;
45620;SDS011;31345;51.522;10.702;2024-03-02T04:03:17;29.50;;;15.77;;
45620;SDS011;31345;51.522;10.702;2024-03-02T04:05:50;30.90;;;16.30;;
45620;SDS011;31345;51.522;10.702;2024-03-02T04:08:24;31.40;;;16.20;;
45620;SDS011;31345;51.522;10.702;2024-03-02T04:10:51;32.80;;;18.77;;
45620;SDS011;31345;51.522;10.702;2024-03-02T04:13:24;34.60;;;19.67;;
45620;SDS011;31345;51.522;10.702;2024-03-02T04:15:57;31.43;;;19.57;;
45620;SDS011;31345;51.522;10.702;2024-03-02T04:18:29;29.47;;;18.43;;
45620;SDS011;31345;51.522;10.702;2024-03-02T04:21:03;34.00;;;19.13;;
45620;SDS011;31345;51.522;10.702;2024-03-02T04:23:32;32.93;;;18.30;;
45620;SDS011;31345;51.522;10.702;2024-03-02T04:26:04;35.13;;;19.03;;
45620;SDS011;31345;51.522;10.702;2024-03-02T04:28:37;34.87;;;18.63;;
45620;SDS011;31345;51.522;10.702;2024-03-02T04:31:10;32.20;;;18.20;;
45620;SDS011;31345;51.522;10.702;2024-03-02T04:33:42;36.50;;;20.07;;
45620;SDS011;31345;51.522;10.702;2024-03-02T04:36:10;29.73;;;18.27;;
45620;SDS011;31345;51.522;10.702;2024-03-02T04:38:44;31.98;;;19.25;;
45620;SDS011;31345;51.522;10.702;2024-03-02T04:41:16;39.60;;;21.80;;
45620;SDS011;31345;51.522;10.702;2024-03-02T04:43:49;35.67;;;21.60;;
45620;SDS011;31345;51.522;10.702;2024-03-02T04:46:22;34.90;;;20.73;;
45620;SDS011;31345;51.522;10.702;2024-03-02T04:48:55;33.13;;;18.43;;
45620;SDS011;31345;51.522;10.702;2024-03-02T04:51:23;36.47;;;19.90;;
45620;SDS011;31345;51.522;10.702;2024-03-02T04:53:57;36.67;;;20.77;;
45620;SDS011;31345;51.522;10.702;2024-03-02T04:56:25;34.40;;;20.87;;
45620;SDS011;31345;51.522;10.702;2024-03-02T04:59:10;30.67;;;18.23;;
45620;SDS011;31345;51.522;10.702;2024-03-02T05:01:38;30.20;;;18.40;;
45620;SDS011;31345;51.522;10.702;2024-03-02T05:04:10;31.13;;;20.03;;
45620;SDS011;31345;51.522;10.702;2024-03-02T05:06:43;33.47;;;18.47;;
45620;SDS011;31345;51.522;10.702;2024-03-02T05:09:18;36.77;;;20.63;;
45620;SDS011;31345;51.522;10.702;2024-03-02T05:11:50;33.07;;;18.77;;
45620;SDS011;31345;51.522;10.702;2024-03-02T05:14:48;30.63;;;18.23;;
45620;SDS011;31345;51.522;10.702;2024-03-02T05:17:21;27.30;;;17.63;;
45620;SDS011;31345;51.522;10.702;2024-03-02T05:19:48;36.00;;;19.50;;
45620;SDS011;31345;51.522;10.702;2024-03-02T05:22:21;32.58;;;18.13;;
45620;SDS011;31345;51.522;10.702;2024-03-02T05:24:55;31.67;;;18.00;;
45620;SDS011;31345;51.522;10.702;2024-03-02T05:27:27;30.77;;;17.37;;
45620;SDS011;31345;51.522;10.702;2024-03-02T05:30:00;29.27;;;17.33;;
45620;SDS011;31345;51.522;10.702;2024-03-02T05:32:33;28.13;;;17.03;;
45620;SDS011;31345;51.522;10.702;2024-03-02T05:35:01;32.40;;;18.87;;
45620;SDS011;31345;51.522;10.702;2024-03-02T05:37:34;29.10;;;17.40;;
45620;SDS011;31345;51.522;10.702;2024-03-02T05:40:08;27.77;;;15.60;;
45620;SDS011;31345;51.522;10.702;2024-03-02T05:42:42;30.40;;;17.07;;
45620;SDS011;31345;51.522;10.702;2024-03-02T05:45:14;27.47;;;16.90;;
45620;SDS011;31345;51.522;10.702;2024-03-02T05:47:43;29.37;;;18.13;;
45620;SDS011;31345;51.522;10.702;2024-03-02T05:50:15;29.37;;;17.40;;
45620;SDS011;31345;51.522;10.702;2024-03-02T05:52:48;34.83;;;18.33;;
45620;SDS011;31345;51.522;10.702;2024-03-02T05:55:22;34.47;;;19.00;;
45620;SDS011;31345;51.522;10.702;2024-03-02T05:57:50;31.73;;;18.07;;
45620;SDS011;31345;51.522;10.702;2024-03-02T06:00:37;28.90;;;15.77;;
45620;SDS011;31345;51.522;10.702;2024-03-02T06:03:10;27.10;;;16.57;;
45620;SDS011;31345;51.522;10.702;2024-03-02T06:05:43;28.37;;;16.40;;
45620;SDS011;31345;51.522;10.702;2024-03-02T06:08:15;31.43;;;17.87;;
45620;SDS011;31345;51.522;10.702;2024-03-02T06:10:49;33.57;;;19.63;;
45620;SDS011;31345;51.522;10.702;2024-03-02T06:13:17;29.93;;;17.87;;
45620;SDS011;31345;51.522;10.702;2024-03-02T06:15:50;30.43;;;18.37;;
45620;SDS011;31345;51.522;10.702;2024-03-02T06:18:22;31.83;;;17.83;;
45620;SDS011;31345;51.522;10.702;2024-03-02T06:20:55;33.33;;;18.97;;
45620;SDS011;31345;51.522;10.702;2024-03-02T06:23:27;33.20;;;19.67;;
45620;SDS011;31345;51.522;10.702;2024-03-02T06:25:56;43.57;;;24.33;;
45620;SDS011;31345;51.522;10.702;2024-03-02T06:28:24;32.80;;;19.40;;
45620;SDS011;31345;51.522;10.702;2024-03-02T06:30:56;37.90;;;19.70;;
45620;SDS011;31345;51.522;10.702;2024-03-02T06:33:29;40.70;;;21.23;;
45620;SDS011;31345;51.522;10.702;2024-03-02T06:35:57;46.73;;;25.63;;
45620;SDS011;31345;51.522;10.702;2024-03-02T06:38:29;45.33;;;24.93;;
45620;SDS011;31345;51.522;10.702;2024-03-02T06:40:59;47.57;;;25.87;;
45620;SDS011;31345;51.522;10.702;2024-03-02T06:43:27;42.30;;;24.03;;
45620;SDS011;31345;51.522;10.702;2024-03-02T06:45:59;41.30;;;23.43;;
45620;SDS011;31345;51.522;10.702;2024-03-02T06:48:32;41.20;;;22.83;;
45620;SDS011;31345;51.522;10.702;2024-03-02T06:51:05;38.77;;;22.47;;
45620;SDS011;31345;51.522;10.702;2024-03-02T06:53:37;41.67;;;23.43;;
45620;SDS011;31345;51.522;10.702;2024-03-02T06:56:11;40.57;;;23.90;;
45620;SDS011;31345;51.522;10.702;2024-03-02T06:58:39;42.53;;;24.23;;
45620;SDS011;31345;51.522;10.702;2024-03-02T07:01:07;48.10;;;25.60;;
45620;SDS011;31345;51.522;10.702;2024-03-02T07:03:35;42.60;;;24.33;;
45620;SDS011;31345;51.522;10.702;2024-03-02T07:06:07;47.30;;;25.37;;
45620;SDS011;31345;51.522;10.702;2024-03-02T07:08:35;39.77;;;23.67;;
45620;SDS011;31345;51.522;10.702;2024-03-02T07:11:03;41.60;;;24.43;;
45620;SDS011;31345;51.522;10.702;2024-03-02T07:13:37;40.97;;;22.63;;
45620;SDS011;31345;51.522;10.702;2024-03-02T07:16:04;42.27;;;24.37;;
45620;SDS011;31345;51.522;10.702;2024-03-02T07:18:57;50.30;;;24.52;;
45620;SDS011;31345;51.522;10.702;2024-03-02T07:21:30;48.08;;;25.17;;
45620;SDS011;31345;51.522;10.702;2024-03-02T07:23:58;43.30;;;24.58;;
45620;SDS011;31345;51.522;10.702;2024-03-02T07:26:33;44.67;;;24.30;;
45620;SDS011;31345;51.522;10.702;2024-03-02T07:29:02;44.33;;;24.05;;
45620;SDS011;31345;51.522;10.702;2024-03-02T07:31:30;42.43;;;24.80;;
45620;SDS011;31345;51.522;10.702;2024-03-02T07:34:03;39.80;;;22.52;;
45620;SDS011;31345;51.522;10.702;2024-03-02T07:36:35;38.70;;;22.13;;
45620;SDS011;31345;51.522;10.702;2024-03-02T07:39:10;38.85;;;22.98;;
45620;SDS011;31345;51.522;10.702;2024-03-02T07:41:42;38.63;;;22.75;;
45620;SDS011;31345;51.522;10.702;2024-03-02T07:44:11;41.33;;;23.88;;
45620;SDS011;31345;51.522;10.702;2024-03-02T07:46:40;39.23;;;22.53;;
45620;SDS011;31345;51.522;10.702;2024-03-02T07:49:08;41.92;;;23.27;;
45620;SDS011;31345;51.522;10.702;2024-03-02T07:51:41;44.13;;;25.58;;
45620;SDS011;31345;51.522;10.702;2024-03-02T07:54:09;47.40;;;27.55;;
45620;SDS011;31345;51.522;10.702;2024-03-02T07:56:41;41.20;;;24.35;;
45620;SDS011;31345;51.522;10.702;2024-03-02T07:59:16;44.70;;;25.30;;
45620;SDS011;31345;51.522;10.702;2024-03-02T08:01:43;48.83;;;26.92;;
45620;SDS011;31345;51.522;10.702;2024-03-02T08:04:16;46.00;;;25.10;;
45620;SDS011;31345;51.522;10.702;2024-03-02T08:06:49;43.10;;;26.05;;
45620;SDS011;31345;51.522;10.702;2024-03-02T08:09:21;42.00;;;24.10;;
45620;SDS011;31345;51.522;10.702;2024-03-02T08:11:49;38.13;;;22.85;;
45620;SDS011;31345;51.522;10.702;2024-03-02T08:14:23;38.97;;;22.83;;
45620;SDS011;31345;51.522;10.702;2024-03-02T08:16:55;37.15;;;23.67;;
45620;SDS011;31345;51.522;10.702;2024-03-02T08:19:23;38.13;;;22.88;;
45620;SDS011;31345;51.522;10.702;2024-03-02T08:21:51;40.20;;;22.50;;
45620;SDS011;31345;51.522;10.702;2024-03-02T08:24:19;37.78;;;21.92;;
45620;SDS011;31345;51.522;10.702;2024-03-02T08:26:51;35.22;;;21.65;;
45620;SDS011;31345;51.522;10.702;2024-03-02T08:29:25;38.58;;;21.92;;
45620;SDS011;31345;51.522;10.702;2024-03-02T08:31:59;35.13;;;20.90;;
45620;SDS011;31345;51.522;10.702;2024-03-02T08:34:26;36.58;;;21.83;;
45620;SDS011;31345;51.522;10.702;2024-03-02T08:36:59;35.17;;;21.25;;
45620;SDS011;31345;51.522;10.702;2024-03-02T08:39:26;37.95;;;21.80;;
45620;SDS011;31345;51.522;10.702;2024-03-02T08:41:54;36.38;;;21.13;;
45620;SDS011;31345;51.522;10.702;2024-03-02T08:44:28;34.70;;;22.20;;
45620;SDS011;31345;51.522;10.702;2024-03-02T08:46:56;36.65;;;21.70;;
45620;SDS011;31345;51.522;10.702;2024-03-02T08:49:23;38.38;;;23.13;;
45620;SDS011;31345;51.522;10.702;2024-03-02T08:51:51;38.53;;;22.70;;
45620;SDS011;31345;51.522;10.702;2024-03-02T08:54:25;46.63;;;28.67;;
45620;SDS011;31345;51.522;10.702;2024-03-02T08:56:59;37.30;;;23.40;;
45620;SDS011;31345;51.522;10.702;2024-03-02T08:59:33;43.13;;;26.67;;
45620;SDS011;31345;51.522;10.702;2024-03-02T09:02:01;40.28;;;24.30;;
45620;SDS011;31345;51.522;10.702;2024-03-02T09:04:28;71.85;;;43.42;;
45620;SDS011;31345;51.522;10.702;2024-03-02T09:07:01;42.45;;;24.23;;
45620;SDS011;31345;51.522;10.702;2024-03-02T09:09:34;33.58;;;21.15;;
45620;SDS011;31345;51.522;10.702;2024-03-02T09:12:01;40.70;;;24.67;;
45620;SDS011;31345;51.522;10.702;2024-03-02T09:17:09;37.50;;;24.27;;
45620;SDS011;31345;51.522;10.702;2024-03-02T09:19:37;36.22;;;22.05;;
45620;SDS011;31345;51.522;10.702;2024-03-02T09:22:10;37.75;;;22.23;;
45620;SDS011;31345;51.522;10.702;2024-03-02T09:24:43;37.45;;;22.92;;
45620;SDS011;31345;51.522;10.702;2024-03-02T09:27:10;34.50;;;21.27;;
45620;SDS011;31345;51.522;10.702;2024-03-02T09:29:39;36.67;;;22.20;;
45620;SDS011;31345;51.522;10.702;2024-03-02T09:32:12;33.42;;;20.00;;
45620;SDS011;31345;51.522;10.702;2024-03-02T09:34:46;36.70;;;20.30;;
45620;SDS011;31345;51.522;10.702;2024-03-02T09:37:14;35.50;;;21.42;;
45620;SDS011;31345;51.522;10.702;2024-03-02T09:39:43;34.30;;;21.00;;
45620;SDS011;31345;51.522;10.702;2024-03-02T09:42:16;35.35;;;21.42;;
45620;SDS011;31345;51.522;10.702;2024-03-02T09:44:45;32.42;;;20.17;;
45620;SDS011;31345;51.522;10.702;2024-03-02T09:47:19;37.17;;;21.00;;
45620;SDS011;31345;51.522;10.702;2024-03-02T09:49:51;33.72;;;20.80;;
45620;SDS011;31345;51.522;10.702;2024-03-02T09:52:19;34.58;;;21.25;;
45620;SDS011;31345;51.522;10.702;2024-03-02T09:54:52;37.17;;;21.42;;
45620;SDS011;31345;51.522;10.702;2024-03-02T09:57:20;33.70;;;20.20;;
45620;SDS011;31345;51.522;10.702;2024-03-02T09:59:54;33.65;;;21.08;;
45620;SDS011;31345;51.522;10.702;2024-03-02T10:02:26;37.97;;;21.05;;
45620;SDS011;31345;51.522;10.702;2024-03-02T10:04:59;33.45;;;20.85;;
45620;SDS011;31345;51.522;10.702;2024-03-02T10:07:35;36.15;;;20.88;;
45620;SDS011;31345;51.522;10.702;2024-03-02T10:10:12;31.08;;;19.25;;
45620;SDS011;31345;51.522;10.702;2024-03-02T10:12:40;33.28;;;20.10;;
45620;SDS011;31345;51.522;10.702;2024-03-02T10:15:14;31.13;;;19.55;;
45620;SDS011;31345;51.522;10.702;2024-03-02T10:17:56;34.35;;;19.88;;
45620;SDS011;31345;51.522;10.702;2024-03-02T10:20:29;31.00;;;19.70;;
45620;SDS011;31345;51.522;10.702;2024-03-02T10:23:10;28.90;;;18.08;;
45620;SDS011;31345;51.522;10.702;2024-03-02T10:25:43;30.60;;;17.70;;
45620;SDS011;31345;51.522;10.702;2024-03-02T10:28:16;30.98;;;18.85;;
45620;SDS011;31345;51.522;10.702;2024-03-02T10:30:47;30.77;;;18.83;;
45620;SDS011;31345;51.522;10.702;2024-03-02T10:33:14;32.22;;;19.30;;
45620;SDS011;31345;51.522;10.702;2024-03-02T10:35:49;29.70;;;19.05;;
45620;SDS011;31345;51.522;10.702;2024-03-02T10:38:17;31.83;;;19.77;;
45620;SDS011;31345;51.522;10.702;2024-03-02T10:40:46;28.05;;;17.95;;
45620;SDS011;31345;51.522;10.702;2024-03-02T10:43:19;30.33;;;17.70;;
45620;SDS011;31345;51.522;10.702;2024-03-02T10:45:54;26.65;;;17.35;;
45620;SDS011;31345;51.522;10.702;2024-03-02T10:50:57;31.60;;;18.27;;
45620;SDS011;31345;51.522;10.702;2024-03-02T10:53:32;30.33;;;18.00;;
45620;SDS011;31345;51.522;10.702;2024-03-02T10:56:05;27.30;;;17.27;;
45620;SDS011;31345;51.522;10.702;2024-03-02T11:01:05;24.70;;;15.75;;
45620;SDS011;31345;51.522;10.702;2024-03-02T11:03:39;27.40;;;16.02;;
45620;SDS011;31345;51.522;10.702;2024-03-02T11:06:13;26.30;;;15.52;;
45620;SDS011;31345;51.522;10.702;2024-03-02T11:08:41;23.45;;;15.18;;
45620;SDS011;31345;51.522;10.702;2024-03-02T11:11:12;25.35;;;15.98;;
45620;SDS011;31345;51.522;10.702;2024-03-02T11:13:49;26.38;;;16.23;;
45620;SDS011;31345;51.522;10.702;2024-03-02T11:16:26;25.45;;;16.27;;
45620;SDS011;31345;51.522;10.702;2024-03-02T11:19:06;26.73;;;15.57;;
45620;SDS011;31345;51.522;10.702;2024-03-02T11:21:37;23.15;;;15.55;;
45620;SDS011;31345;51.522;10.702;2024-03-02T11:24:30;25.65;;;15.90;;
45620;SDS011;31345;51.522;10.702;2024-03-02T11:27:06;22.08;;;14.55;;
45620;SDS011;31345;51.522;10.702;2024-03-02T11:29:43;24.45;;;15.75;;
45620;SDS011;31345;51.522;10.702;2024-03-02T11:32:17;22.23;;;15.02;;
45620;SDS011;31345;51.522;10.702;2024-03-02T11:34:52;22.92;;;14.40;;
45620;SDS011;31345;51.522;10.702;2024-03-02T11:37:25;22.88;;;14.90;;
45620;SDS011;31345;51.522;10.702;2024-03-02T11:39:57;21.58;;;14.05;;
45620;SDS011;31345;51.522;10.702;2024-03-02T11:42:25;24.40;;;15.02;;
45620;SDS011;31345;51.522;10.702;2024-03-02T11:44:53;21.38;;;14.25;;
45620;SDS011;31345;51.522;10.702;2024-03-02T11:47:25;21.08;;;13.82;;
45620;SDS011;31345;51.522;10.702;2024-03-02T11:50:04;25.05;;;15.75;;
45620;SDS011;31345;51.522;10.702;2024-03-02T11:52:32;21.15;;;13.70;;
45620;SDS011;31345;51.522;10.702;2024-03-02T11:55:06;24.58;;;15.80;;
45620;SDS011;31345;51.522;10.702;2024-03-02T11:57:40;24.60;;;14.85;;
45620;SDS011;31345;51.522;10.702;2024-03-02T12:00:16;21.98;;;14.52;;
45620;SDS011;31345;51.522;10.702;2024-03-02T12:02:46;23.10;;;14.48;;
45620;SDS011;31345;51.522;10.702;2024-03-02T12:05:26;22.88;;;14.07;;
45620;SDS011;31345;51.522;10.702;2024-03-02T12:07:55;22.50;;;13.80;;
45620;SDS011;31345;51.522;10.702;2024-03-02T12:10:30;21.08;;;12.98;;
45620;SDS011;31345;51.522;10.702;2024-03-02T12:12:58;22.35;;;14.85;;
45620;SDS011;31345;51.522;10.702;2024-03-02T12:15:27;19.73;;;12.70;;
45620;SDS011;31345;51.522;10.702;2024-03-02T12:18:02;19.67;;;12.38;;
45620;SDS011;31345;51.522;10.702;2024-03-02T12:20:36;18.08;;;11.30;;
45620;SDS011;31345;51.522;10.702;2024-03-02T12:23:10;18.88;;;11.88;;
45620;SDS011;31345;51.522;10.702;2024-03-02T12:25:43;18.70;;;11.15;;
45620;SDS011;31345;51.522;10.702;2024-03-02T12:28:11;15.75;;;10.52;;
45620;SDS011;31345;51.522;10.702;2024-03-02T12:30:43;16.42;;;10.55;;
45620;SDS011;31345;51.522;10.702;2024-03-02T12:33:20;18.27;;;11.13;;
45620;SDS011;31345;51.522;10.702;2024-03-02T12:35:48;18.00;;;10.90;;
45620;SDS011;31345;51.522;10.702;2024-03-02T12:38:21;19.00;;;10.68;;
45620;SDS011;31345;51.522;10.702;2024-03-02T12:40:51;15.57;;;9.95;;
45620;SDS011;31345;51.522;10.702;2024-03-02T12:43:19;16.42;;;10.57;;
45620;SDS011;31345;51.522;10.702;2024-03-02T12:45:52;16.10;;;11.18;;
45620;SDS011;31345;51.522;10.702;2024-03-02T12:48:28;15.25;;;10.55;;
45620;SDS011;31345;51.522;10.702;2024-03-02T12:51:01;16.33;;;11.20;;
45620;SDS011;31345;51.522;10.702;2024-03-02T12:53:34;13.82;;;9.90;;
45620;SDS011;31345;51.522;10.702;2024-03-02T12:56:07;16.75;;;11.27;;
45620;SDS011;31345;51.522;10.702;2024-03-02T12:58:40;14.50;;;9.00;;
45620;SDS011;31345;51.522;10.702;2024-03-02T13:01:14;15.40;;;10.27;;
45620;SDS011;31345;51.522;10.702;2024-03-02T13:03:46;25.38;;;15.90;;
45620;SDS011;31345;51.522;10.702;2024-03-02T13:06:22;16.15;;;10.57;;
45620;SDS011;31345;51.522;10.702;2024-03-02T13:08:50;16.80;;;11.00;;
45620;SDS011;31345;51.522;10.702;2024-03-02T13:11:22;15.40;;;10.82;;
45620;SDS011;31345;51.522;10.702;2024-03-02T13:13:51;16.80;;;11.10;;
45620;SDS011;31345;51.522;10.702;2024-03-02T13:16:24;17.15;;;10.73;;
45620;SDS011;31345;51.522;10.702;2024-03-02T13:18:53;16.73;;;11.63;;
45620;SDS011;31345;51.522;10.702;2024-03-02T13:21:22;17.33;;;10.73;;
45620;SDS011;31345;51.522;10.702;2024-03-02T13:23:50;15.52;;;10.35;;
45620;SDS011;31345;51.522;10.702;2024-03-02T13:26:17;17.85;;;12.60;;
45620;SDS011;31345;51.522;10.702;2024-03-02T13:28:50;16.75;;;11.40;;
45620;SDS011;31345;51.522;10.702;2024-03-02T13:31:23;16.45;;;10.32;;
45620;SDS011;31345;51.522;10.702;2024-03-02T13:33:57;19.60;;;12.65;;
45620;SDS011;31345;51.522;10.702;2024-03-02T13:36:29;21.05;;;13.30;;
45620;SDS011;31345;51.522;10.702;2024-03-02T13:38:57;16.60;;;11.07;;
45620;SDS011;31345;51.522;10.702;2024-03-02T13:41:30;16.92;;;11.10;;
45620;SDS011;31345;51.522;10.702;2024-03-02T13:43:57;18.40;;;11.18;;
45620;SDS011;31345;51.522;10.702;2024-03-02T13:46:27;16.73;;;11.40;;
45620;SDS011;31345;51.522;10.702;2024-03-02T13:49:01;18.30;;;12.40;;
45620;SDS011;31345;51.522;10.702;2024-03-02T13:51:35;17.52;;;11.98;;
45620;SDS011;31345;51.522;10.702;2024-03-02T13:54:07;15.63;;;10.98;;
45620;SDS011;31345;51.522;10.702;2024-03-02T13:56:35;15.52;;;10.82;;
45620;SDS011;31345;51.522;10.702;2024-03-02T13:59:05;15.00;;;9.82;;
45620;SDS011;31345;51.522;10.702;2024-03-02T14:01:33;21.67;;;12.50;;
45620;SDS011;31345;51.522;10.702;2024-03-02T14:04:02;19.38;;;12.70;;
45620;SDS011;31345;51.522;10.702;2024-03-02T14:06:36;21.55;;;14.05;;
45620;SDS011;31345;51.522;10.702;2024-03-02T14:09:04;19.75;;;12.70;;
45620;SDS011;31345;51.522;10.702;2024-03-02T14:11:36;13.75;;;9.93;;
45620;SDS011;31345;51.522;10.702;2024-03-02T14:14:10;19.15;;;10.95;;
45620;SDS011;31345;51.522;10.702;2024-03-02T14:16:37;19.38;;;11.57;;
45620;SDS011;31345;51.522;10.702;2024-03-02T14:19:12;21.63;;;13.82;;
45620;SDS011;31345;51.522;10.702;2024-03-02T14:21:45;17.92;;;11.73;;
45620;SDS011;31345;51.522;10.702;2024-03-02T14:24:18;14.25;;;10.00;;
45620;SDS011;31345;51.522;10.702;2024-03-02T14:26:50;14.25;;;9.65;;
45620;SDS011;31345;51.522;10.702;2024-03-02T14:29:22;31.50;;;19.00;;
45620;SDS011;31345;51.522;10.702;2024-03-02T14:31:50;29.83;;;16.83;;
45620;SDS011;31345;51.522;10.702;2024-03-02T14:34:24;36.20;;;20.50;;
45620;SDS011;31345;51.522;10.702;2024-03-02T14:36:56;21.58;;;14.63;;
45620;SDS011;31345;51.522;10.702;2024-03-02T14:39:24;46.78;;;25.20;;
45620;SDS011;31345;51.522;10.702;2024-03-02T14:41:57;28.85;;;17.30;;
45620;SDS011;31345;51.522;10.702;2024-03-02T14:44:25;24.90;;;14.10;;
45620;SDS011;31345;51.522;10.702;2024-03-02T14:46:57;15.73;;;10.32;;